createdAt,value
2024-02-17T00:00:15.094Z,1.45
2024-02-17T00:02:42.181Z,1.90
2024-02-17T00:05:09.033Z,1.52
2024-02-17T00:07:35.751Z,2.15
2024-02-17T00:10:04.929Z,1.55
2024-02-17T00:12:32.260Z,1.20
2024-02-17T00:14:59.632Z,1.17
2024-02-17T00:17:26.609Z,1.65
2024-02-17T00:19:53.587Z,1.75
2024-02-17T00:22:20.519Z,1.75
2024-02-17T00:24:47.307Z,1.95
2024-02-17T00:27:14.125Z,2.00
2024-02-17T00:29:40.854Z,1.48
2024-02-17T00:32:08.229Z,1.17
2024-02-17T00:34:35.638Z,1.58
2024-02-17T00:37:02.559Z,0.90
2024-02-17T00:39:29.199Z,1.52
2024-02-17T00:41:55.760Z,2.20
2024-02-17T00:44:22.531Z,2.10
2024-02-17T00:46:49.304Z,1.50
2024-02-17T00:49:16.184Z,2.00
2024-02-17T00:51:42.874Z,0.85
2024-02-17T00:54:09.540Z,2.10
2024-02-17T00:56:36.230Z,2.65
2024-02-17T00:59:03.186Z,2.17
2024-02-17T01:01:36.563Z,3.17
2024-02-17T01:04:06.735Z,1.50
2024-02-17T01:06:33.801Z,1.55
2024-02-17T01:09:00.446Z,2.15
2024-02-17T01:11:27.188Z,1.80
2024-02-17T01:13:53.969Z,1.08
2024-02-17T01:16:20.824Z,1.58
2024-02-17T01:18:47.866Z,1.55
2024-02-17T01:21:14.709Z,1.95
2024-02-17T01:23:44.175Z,0.85
2024-02-17T01:26:10.948Z,2.30
2024-02-17T01:28:37.594Z,2.25
2024-02-17T01:31:04.220Z,1.75
2024-02-17T01:33:30.804Z,0.98
2024-02-17T01:35:57.854Z,2.35
2024-02-17T01:38:24.544Z,1.50
2024-02-17T01:40:51.298Z,1.73
2024-02-17T01:43:17.927Z,2.90
2024-02-17T01:45:45.796Z,1.67
2024-02-17T01:48:13.246Z,2.30
2024-02-17T01:50:39.953Z,3.40
2024-02-17T01:53:06.632Z,3.05
2024-02-17T01:55:33.681Z,2.53
2024-02-17T01:58:04.566Z,2.40
2024-02-17T02:00:31.610Z,1.95
2024-02-17T02:02:59.616Z,2.83
2024-02-17T02:05:26.129Z,1.75
2024-02-17T02:07:52.790Z,1.95
2024-02-17T02:10:19.388Z,2.00
2024-02-17T02:12:46.727Z,3.05
2024-02-17T02:15:14.568Z,1.40
2024-02-17T02:17:44.583Z,2.53
2024-02-17T02:20:14.808Z,1.75
2024-02-17T02:22:43.452Z,1.92
2024-02-17T02:25:17.407Z,1.52
2024-02-17T02:27:44.131Z,2.00
2024-02-17T02:30:11.967Z,2.60
2024-02-17T02:32:38.690Z,1.40
2024-02-17T02:35:05.648Z,1.38
2024-02-17T02:37:32.381Z,1.27
2024-02-17T02:39:59.129Z,1.90
2024-02-17T02:42:25.846Z,3.33
2024-02-17T02:44:52.870Z,2.15
2024-02-17T02:47:19.691Z,1.20
2024-02-17T02:49:46.762Z,2.50
2024-02-17T02:52:14.620Z,2.10
2024-02-17T02:54:41.476Z,1.25
2024-02-17T02:57:08.124Z,1.05
2024-02-17T02:59:34.798Z,1.48
2024-02-17T03:02:02.546Z,2.20
2024-02-17T03:04:32.144Z,1.95
2024-02-17T03:06:58.999Z,1.75
2024-02-17T03:09:25.896Z,1.42
2024-02-17T03:11:52.530Z,1.13
2024-02-17T03:14:19.472Z,2.15
2024-02-17T03:16:46.250Z,2.72
2024-02-17T03:19:13.130Z,1.92
2024-02-17T03:21:40.640Z,2.25
2024-02-17T03:24:07.728Z,1.75
2024-02-17T03:26:34.584Z,1.92
2024-02-17T03:29:01.352Z,2.08
2024-02-17T03:31:28.109Z,1.85
2024-02-17T03:33:56.164Z,1.55
2024-02-17T03:36:23.614Z,3.00
2024-02-17T03:38:50.354Z,1.45
2024-02-17T03:41:16.975Z,1.95
2024-02-17T03:43:46.044Z,1.95
2024-02-17T03:46:12.753Z,2.20
2024-02-17T03:48:40.077Z,0.80
2024-02-17T03:51:07.413Z,0.68
2024-02-17T03:53:34.166Z,1.60
2024-02-17T03:56:01.347Z,2.05
2024-02-17T03:58:27.894Z,2.38
2024-02-17T04:00:54.949Z,1.20
2024-02-17T04:03:22.090Z,1.58
2024-02-17T04:05:48.719Z,1.35
2024-02-17T04:08:15.286Z,1.80
2024-02-17T04:10:41.881Z,1.75
2024-02-17T04:13:08.840Z,1.55
2024-02-17T04:15:35.689Z,2.10
2024-02-17T04:18:02.876Z,1.60
2024-02-17T04:20:31.684Z,1.50
2024-02-17T04:22:59.981Z,1.27
2024-02-17T04:25:26.751Z,1.27
2024-02-17T04:27:53.524Z,2.25
2024-02-17T04:30:20.093Z,1.25
2024-02-17T04:32:46.728Z,1.00
2024-02-17T04:35:13.394Z,2.58
2024-02-17T04:37:40.602Z,1.65
2024-02-17T04:40:07.676Z,2.50
2024-02-17T04:42:34.460Z,2.65
2024-02-17T04:45:01.045Z,2.42
2024-02-17T04:47:27.763Z,0.85
2024-02-17T04:49:54.635Z,2.33
2024-02-17T04:52:21.397Z,1.85
2024-02-17T04:54:47.988Z,1.92
2024-02-17T04:57:14.645Z,2.03
2024-02-17T04:59:41.166Z,2.08
2024-02-17T05:02:07.837Z,1.27
2024-02-17T05:04:34.695Z,1.85
2024-02-17T05:07:01.470Z,2.17
2024-02-17T05:09:28.036Z,1.30
2024-02-17T05:11:56.851Z,1.73
2024-02-17T05:14:26.639Z,1.45
2024-02-17T05:16:55.567Z,1.95
2024-02-17T05:19:22.284Z,2.65
2024-02-17T05:21:49.055Z,2.33
2024-02-17T05:24:15.706Z,1.55
2024-02-17T05:26:42.409Z,1.65
2024-02-17T05:29:09.131Z,1.50
2024-02-17T05:31:36.568Z,1.85
2024-02-17T05:34:04.263Z,1.35
2024-02-17T05:36:31.067Z,1.42
2024-02-17T05:38:57.931Z,1.45
2024-02-17T05:41:24.870Z,2.58
2024-02-17T05:43:54.376Z,1.75
2024-02-17T05:46:21.153Z,3.63
2024-02-17T05:48:47.963Z,3.15
2024-02-17T05:51:15.502Z,1.42
2024-02-17T05:53:42.268Z,1.58
2024-02-17T05:56:09.107Z,2.20
2024-02-17T05:58:41.026Z,2.45
2024-02-17T06:01:08.882Z,1.02
2024-02-17T06:03:35.996Z,2.40
2024-02-17T06:06:02.648Z,2.58
2024-02-17T06:08:30.808Z,2.80
2024-02-17T06:10:58.126Z,4.13
2024-02-17T06:13:26.120Z,1.75
2024-02-17T06:15:53.288Z,2.45
2024-02-17T06:18:38.777Z,3.30
2024-02-17T06:21:12.054Z,2.17
2024-02-17T06:23:38.988Z,5.30
2024-02-17T06:26:05.663Z,3.38
2024-02-17T06:28:32.278Z,3.70
2024-02-17T06:30:59.111Z,2.13
2024-02-17T06:33:25.932Z,2.17
2024-02-17T06:35:52.565Z,2.40
2024-02-17T06:38:21.374Z,2.33
2024-02-17T06:40:48.869Z,2.83
2024-02-17T06:43:18.999Z,1.55
2024-02-17T06:45:45.763Z,1.95
2024-02-17T06:48:12.892Z,2.05
2024-02-17T06:50:39.568Z,2.13
2024-02-17T06:53:06.317Z,3.10
2024-02-17T06:55:33.146Z,2.17
2024-02-17T06:57:59.686Z,2.47
2024-02-17T07:00:26.360Z,1.20
2024-02-17T07:02:53.134Z,2.30
2024-02-17T07:05:19.944Z,2.10
2024-02-17T07:07:46.573Z,4.20
2024-02-17T07:10:13.408Z,3.80
2024-02-17T07:12:40.179Z,3.25
2024-02-17T07:15:07.091Z,5.25
2024-02-17T07:17:34.168Z,3.20
2024-02-17T07:20:01.275Z,5.18
2024-02-17T07:22:28.779Z,3.65
2024-02-17T07:24:55.461Z,4.07
2024-02-17T07:27:24.558Z,4.65
2024-02-17T07:29:51.895Z,4.25
2024-02-17T07:32:20.157Z,5.53
2024-02-17T07:34:47.367Z,6.80
2024-02-17T07:37:14.514Z,7.40
2024-02-17T07:39:42.741Z,5.93
2024-02-17T07:42:10.857Z,5.18
2024-02-17T07:44:37.679Z,3.22
2024-02-17T07:47:04.822Z,6.07
2024-02-17T07:49:33.726Z,4.88
2024-02-17T07:52:01.335Z,5.40
2024-02-17T07:54:28.387Z,4.97
2024-02-17T07:56:55.074Z,4.57
2024-02-17T07:59:22.067Z,4.82
2024-02-17T08:01:49.186Z,5.60
2024-02-17T08:04:16.008Z,4.95
2024-02-17T08:06:42.800Z,4.07
2024-02-17T08:09:09.794Z,5.00
2024-02-17T08:12:01.593Z,3.65
2024-02-17T08:14:30.712Z,3.15
2024-02-17T08:16:58.462Z,3.67
2024-02-17T08:19:25.614Z,2.85
2024-02-17T08:21:52.969Z,3.75
2024-02-17T08:24:19.954Z,2.70
2024-02-17T08:26:47.030Z,6.45
2024-02-17T08:29:14.006Z,5.15
2024-02-17T08:31:40.757Z,5.53
2024-02-17T08:34:07.561Z,6.90
2024-02-17T08:36:39.958Z,5.78
2024-02-17T08:41:33.680Z,4.13
2024-02-17T08:44:00.359Z,3.03
2024-02-17T08:46:27.359Z,4.60
2024-02-17T08:48:54.105Z,5.15
2024-02-17T08:51:21.658Z,6.57
2024-02-17T08:53:48.768Z,5.05
2024-02-17T08:56:15.969Z,3.65
2024-02-17T08:58:42.677Z,4.25
2024-02-17T09:01:09.860Z,5.15
2024-02-17T09:03:37.631Z,5.43
2024-02-17T09:06:04.529Z,6.80
2024-02-17T09:08:31.165Z,7.20
2024-02-17T09:10:57.881Z,6.18
2024-02-17T09:13:24.829Z,6.00
2024-02-17T09:15:51.663Z,6.28
2024-02-17T09:18:18.689Z,5.43
2024-02-17T09:20:45.540Z,5.55
2024-02-17T09:23:12.567Z,5.43
2024-02-17T09:25:40.400Z,4.05
2024-02-17T09:28:08.164Z,4.85
2024-02-17T09:30:36.150Z,7.57
2024-02-17T09:33:03.041Z,5.20
2024-02-17T09:35:29.790Z,4.50
2024-02-17T09:37:56.442Z,4.03
2024-02-17T09:40:22.995Z,6.05
2024-02-17T09:42:51.891Z,3.90
2024-02-17T09:45:19.230Z,6.40
2024-02-17T09:47:46.662Z,5.93
2024-02-17T09:50:17.500Z,7.45
2024-02-17T09:52:46.203Z,6.20
2024-02-17T09:55:13.242Z,4.22
2024-02-17T09:57:47.315Z,6.43
2024-02-17T10:00:21.561Z,7.00
2024-02-17T10:02:50.045Z,5.45
2024-02-17T10:05:17.400Z,4.47
2024-02-17T10:07:48.811Z,6.63
2024-02-17T10:10:16.066Z,4.65
2024-02-17T10:12:48.913Z,3.65
2024-02-17T10:15:15.879Z,3.65
2024-02-17T10:17:42.769Z,3.45
2024-02-17T10:20:13.905Z,5.57
2024-02-17T10:22:44.771Z,4.03
2024-02-17T10:25:11.752Z,5.32
2024-02-17T10:27:39.636Z,4.90
2024-02-17T10:30:07.554Z,3.50
2024-02-17T10:32:34.463Z,5.47
2024-02-17T10:35:03.423Z,6.15
2024-02-17T10:37:31.714Z,2.90
2024-02-17T10:40:02.767Z,4.32
2024-02-17T10:42:30.052Z,4.15
2024-02-17T10:44:58.172Z,4.13
2024-02-17T10:47:26.985Z,5.15
2024-02-17T10:49:58.186Z,2.72
2024-02-17T10:52:27.250Z,1.27
2024-02-17T10:54:56.363Z,4.85
2024-02-17T10:57:24.208Z,4.03
2024-02-17T10:59:55.717Z,2.50
2024-02-17T11:02:24.671Z,1.97
2024-02-17T11:04:52.407Z,4.78
2024-02-17T11:07:20.453Z,4.55
2024-02-17T11:09:47.368Z,4.28
2024-02-17T11:12:30.001Z,5.45
2024-02-17T11:15:04.560Z,4.13
2024-02-17T11:17:36.745Z,4.13
2024-02-17T11:20:08.297Z,2.30
2024-02-17T11:22:36.121Z,2.53
2024-02-17T11:25:07.439Z,4.70
2024-02-17T11:27:35.909Z,2.88
2024-02-17T11:30:04.128Z,3.47
2024-02-17T11:32:32.224Z,3.10
2024-02-17T11:35:00.647Z,3.67
2024-02-17T11:37:28.926Z,3.00
2024-02-17T11:39:56.161Z,4.40
2024-02-17T11:42:22.935Z,2.83
2024-02-17T11:44:52.088Z,4.80
2024-02-17T11:47:19.044Z,3.92
2024-02-17T11:49:45.834Z,4.88
2024-02-17T11:52:12.747Z,4.82
2024-02-17T11:54:39.597Z,3.67
2024-02-17T11:57:06.866Z,3.67
2024-02-17T11:59:35.316Z,3.80
2024-02-17T12:02:05.370Z,3.25
2024-02-17T12:04:33.232Z,4.22
2024-02-17T12:07:02.070Z,4.00
2024-02-17T12:09:39.314Z,3.60
2024-02-17T12:12:10.135Z,4.10
2024-02-17T12:14:55.523Z,4.95
2024-02-17T12:17:43.735Z,3.63
2024-02-17T12:20:19.406Z,4.85
2024-02-17T12:23:01.507Z,4.78
2024-02-17T12:25:36.667Z,4.40
2024-02-17T12:28:04.788Z,8.88
2024-02-17T12:30:35.522Z,5.53
2024-02-17T12:33:11.037Z,5.55
2024-02-17T12:35:44.863Z,5.32
2024-02-17T12:38:13.908Z,5.68
2024-02-17T12:40:45.079Z,2.25
2024-02-17T12:43:18.687Z,2.88
2024-02-17T12:45:47.019Z,6.28
2024-02-17T12:48:14.529Z,5.22
2024-02-17T12:50:42.534Z,5.68
2024-02-17T12:53:16.783Z,3.78
2024-02-17T12:55:44.411Z,3.22
2024-02-17T12:58:12.410Z,2.60
2024-02-17T13:00:40.431Z,2.63
2024-02-17T13:03:14.460Z,2.10
2024-02-17T13:05:46.716Z,2.78
2024-02-17T13:08:18.840Z,3.03
2024-02-17T13:10:47.131Z,6.70
2024-02-17T13:13:19.232Z,3.22
2024-02-17T13:15:47.671Z,4.22
2024-02-17T13:18:15.270Z,4.50
2024-02-17T13:20:42.624Z,3.95
2024-02-17T13:23:09.692Z,4.35
2024-02-17T13:25:37.220Z,3.53
2024-02-17T13:28:06.201Z,2.40
2024-02-17T13:30:33.383Z,3.78
2024-02-17T13:33:00.571Z,4.07
2024-02-17T13:35:28.359Z,3.65
2024-02-17T13:37:57.631Z,5.32
2024-02-17T13:40:25.067Z,3.80
2024-02-17T13:42:56.170Z,4.28
2024-02-17T13:45:24.031Z,4.53
2024-02-17T13:47:51.254Z,3.78
2024-02-17T13:50:27.086Z,4.82
2024-02-17T13:52:56.798Z,4.07
2024-02-17T13:55:24.754Z,4.25
2024-02-17T13:57:52.188Z,3.28
2024-02-17T14:00:19.333Z,4.03
2024-02-17T14:02:46.451Z,5.25
2024-02-17T14:05:13.349Z,3.85
2024-02-17T14:07:40.502Z,4.75
2024-02-17T14:10:08.097Z,4.28
2024-02-17T14:12:35.267Z,6.40
2024-02-17T14:15:02.362Z,10.27
2024-02-17T14:17:29.793Z,9.60
2024-02-17T14:19:56.994Z,13.65
2024-02-17T14:22:25.041Z,5.15
2024-02-17T14:24:52.189Z,4.38
2024-02-17T14:27:19.417Z,4.50
2024-02-17T14:29:49.786Z,3.80
2024-02-17T14:32:21.048Z,2.92
2024-02-17T14:34:48.431Z,5.80
2024-02-17T14:37:15.664Z,4.40
2024-02-17T14:39:43.105Z,4.57
2024-02-17T14:42:10.828Z,4.05
2024-02-17T14:44:38.072Z,3.95
2024-02-17T14:47:05.582Z,4.25
2024-02-17T14:49:33.008Z,3.17
2024-02-17T14:52:00.746Z,3.50
2024-02-17T14:54:35.689Z,3.80
2024-02-17T14:57:03.523Z,5.70
2024-02-17T14:59:32.321Z,5.70
2024-02-17T15:01:59.988Z,4.28
2024-02-17T15:04:36.096Z,5.05
2024-02-17T15:07:04.256Z,3.40
2024-02-17T15:09:32.114Z,5.13
2024-02-17T15:12:00.161Z,8.15
2024-02-17T15:14:30.945Z,9.20
2024-02-17T15:16:58.762Z,6.90
2024-02-17T15:19:26.176Z,6.20
2024-02-17T15:21:55.878Z,7.90
2024-02-17T15:24:24.534Z,4.22
2024-02-17T15:26:51.580Z,4.18
2024-02-17T15:29:19.359Z,3.70
2024-02-17T15:31:46.438Z,3.25
2024-02-17T15:34:13.499Z,3.85
2024-02-17T15:36:41.628Z,10.70
2024-02-17T15:39:08.497Z,10.77
2024-02-17T15:41:35.483Z,11.80
2024-02-17T15:44:02.534Z,11.48
2024-02-17T15:46:29.343Z,7.07
2024-02-17T15:48:56.498Z,11.57
2024-02-17T15:51:23.956Z,5.15
2024-02-17T15:54:09.498Z,5.40
2024-02-17T15:56:36.634Z,6.78
2024-02-17T15:59:03.690Z,7.35
2024-02-17T16:01:30.760Z,6.80
2024-02-17T16:03:58.128Z,7.40
2024-02-17T16:06:25.534Z,7.13
2024-02-17T16:08:52.905Z,11.93
2024-02-17T16:11:20.481Z,13.68
2024-02-17T16:13:49.219Z,13.57
2024-02-17T16:16:17.649Z,7.07
2024-02-17T16:18:46.883Z,7.55
2024-02-17T16:21:16.150Z,9.15
2024-02-17T16:23:43.707Z,6.13
2024-02-17T16:26:14.559Z,5.00
2024-02-17T16:28:41.876Z,6.22
2024-02-17T16:31:09.833Z,6.80
2024-02-17T16:33:38.042Z,10.20
2024-02-17T16:36:06.295Z,9.93
2024-02-17T16:38:33.488Z,11.35
2024-02-17T16:41:05.288Z,8.25
2024-02-17T16:43:33.327Z,9.82
2024-02-17T16:46:01.661Z,8.13
2024-02-17T16:48:30.998Z,10.75
2024-02-17T16:50:58.609Z,7.88
2024-02-17T16:53:25.531Z,8.52
2024-02-17T16:55:52.256Z,7.43
2024-02-17T16:58:19.820Z,11.73
2024-02-17T17:00:46.929Z,9.93
2024-02-17T17:03:14.793Z,4.70
2024-02-17T17:05:41.931Z,4.82
2024-02-17T17:08:08.841Z,4.38
2024-02-17T17:10:35.554Z,6.45
2024-02-17T17:13:02.527Z,6.22
2024-02-17T17:15:29.536Z,5.82
2024-02-17T17:17:56.205Z,6.95
2024-02-17T17:20:24.676Z,10.35
2024-02-17T17:22:52.084Z,7.65
2024-02-17T17:25:18.862Z,9.00
2024-02-17T17:27:45.765Z,7.15
2024-02-17T17:30:13.450Z,5.75
2024-02-17T17:32:40.828Z,7.10
2024-02-17T17:35:08.480Z,10.57
2024-02-17T17:37:35.332Z,9.18
2024-02-17T17:40:02.529Z,7.43
2024-02-17T17:42:29.415Z,9.20
2024-02-17T17:44:57.132Z,8.38
2024-02-17T17:47:23.771Z,7.25
2024-02-17T17:49:50.635Z,7.57
2024-02-17T17:52:17.862Z,9.55
2024-02-17T17:54:49.381Z,6.35
2024-02-17T17:57:16.649Z,7.40
2024-02-17T17:59:43.540Z,7.00
2024-02-17T18:02:10.311Z,7.60
2024-02-17T18:04:37.332Z,6.32
2024-02-17T18:07:04.459Z,6.97
2024-02-17T18:09:33.668Z,7.57
2024-02-17T18:12:00.920Z,4.90
2024-02-17T18:14:28.485Z,5.40
2024-02-17T18:16:56.370Z,5.25
2024-02-17T18:19:23.686Z,9.18
2024-02-17T18:21:50.785Z,9.15
2024-02-17T18:24:17.609Z,8.77
2024-02-17T18:26:44.762Z,11.48
2024-02-17T18:29:11.896Z,10.75
2024-02-17T18:31:40.042Z,11.00
2024-02-17T18:34:06.980Z,11.90
2024-02-17T18:36:33.838Z,12.57
2024-02-17T18:39:00.540Z,12.25
2024-02-17T18:41:27.166Z,9.55
2024-02-17T18:43:53.724Z,8.75
2024-02-17T18:46:20.706Z,9.00
2024-02-17T18:48:47.544Z,7.97
2024-02-17T18:51:18.685Z,8.32
2024-02-17T18:53:46.410Z,7.40
2024-02-17T18:56:13.517Z,7.75
2024-02-17T18:58:40.361Z,7.57
2024-02-17T19:01:08.372Z,9.52
2024-02-17T19:03:35.387Z,8.57
2024-02-17T19:06:02.168Z,9.10
2024-02-17T19:08:28.773Z,6.28
2024-02-17T19:10:55.497Z,6.55
2024-02-17T19:13:22.191Z,6.35
2024-02-17T19:15:49.133Z,4.65
2024-02-17T19:18:15.983Z,4.97
2024-02-17T19:20:42.657Z,6.72
2024-02-17T19:23:09.199Z,5.53
2024-02-17T19:25:36.793Z,4.95
2024-02-17T19:28:04.048Z,5.85
2024-02-17T19:30:30.822Z,4.32
2024-02-17T19:32:57.524Z,6.18
2024-02-17T19:35:24.360Z,4.45
2024-02-17T19:37:51.114Z,5.43
2024-02-17T19:40:19.434Z,3.80
2024-02-17T19:42:47.127Z,4.03
2024-02-17T19:45:14.465Z,6.03
2024-02-17T19:47:41.318Z,4.68
2024-02-17T19:50:10.648Z,3.70
2024-02-17T19:52:38.348Z,6.57
2024-02-17T19:55:05.263Z,6.93
2024-02-17T19:57:31.885Z,5.38
2024-02-17T19:59:58.373Z,4.13
2024-02-17T20:02:25.429Z,4.97
2024-02-17T20:04:52.340Z,9.02
2024-02-17T20:07:19.987Z,7.53
2024-02-17T20:09:46.909Z,7.43
2024-02-17T20:12:13.573Z,6.30
2024-02-17T20:14:40.927Z,7.18
2024-02-17T20:17:07.640Z,9.82
2024-02-17T20:19:34.752Z,5.97
2024-02-17T20:22:01.510Z,11.88
2024-02-17T20:24:28.257Z,10.68
2024-02-17T20:26:54.928Z,11.07
2024-02-17T20:29:21.777Z,9.25
2024-02-17T20:31:49.028Z,9.93
2024-02-17T20:34:15.809Z,5.82
2024-02-17T20:36:42.680Z,5.63
2024-02-17T20:39:11.906Z,7.45
2024-02-17T20:41:41.189Z,8.02
2024-02-17T20:44:11.829Z,6.60
2024-02-17T20:46:38.423Z,5.63
2024-02-17T20:49:05.270Z,10.73
2024-02-17T20:51:32.206Z,5.47
2024-02-17T20:53:59.213Z,7.55
2024-02-17T20:56:26.352Z,6.25
2024-02-17T20:59:08.597Z,6.30
2024-02-17T21:01:40.740Z,8.10
2024-02-17T21:04:08.409Z,8.20
2024-02-17T21:06:36.291Z,7.85
2024-02-17T21:09:04.833Z,8.13
2024-02-17T21:11:31.872Z,10.40
2024-02-17T21:13:58.644Z,8.65
2024-02-17T21:16:26.231Z,8.60
2024-02-17T21:18:54.704Z,7.55
2024-02-17T21:21:26.896Z,8.20
2024-02-17T21:23:54.219Z,5.40
2024-02-17T21:26:21.116Z,7.82
2024-02-17T21:28:49.191Z,8.93
2024-02-17T21:31:17.247Z,7.13
2024-02-17T21:33:46.393Z,6.65
2024-02-17T21:36:13.982Z,8.20
2024-02-17T21:38:41.098Z,6.53
2024-02-17T21:41:07.924Z,5.85
2024-02-17T21:43:35.805Z,6.07
2024-02-17T21:46:03.091Z,5.47
2024-02-17T21:48:31.613Z,5.82
2024-02-17T21:50:59.139Z,5.53
2024-02-17T21:53:26.305Z,4.53
2024-02-17T21:55:53.202Z,6.07
2024-02-17T21:58:21.007Z,4.97
2024-02-17T22:00:48.108Z,7.32
2024-02-17T22:03:15.036Z,4.78
2024-02-17T22:05:42.016Z,4.85
2024-02-17T22:08:08.758Z,5.75
2024-02-17T22:10:35.424Z,5.32
2024-02-17T22:13:02.795Z,5.15
2024-02-17T22:15:29.724Z,3.67
2024-02-17T22:17:57.297Z,5.97
2024-02-17T22:20:24.242Z,6.78
2024-02-17T22:22:50.969Z,4.25
2024-02-17T22:25:17.750Z,6.53
2024-02-17T22:27:44.898Z,4.72
2024-02-17T22:30:14.491Z,5.65
2024-02-17T22:32:42.456Z,3.65
2024-02-17T22:35:13.227Z,2.63
2024-02-17T22:37:40.281Z,2.80
2024-02-17T22:40:07.345Z,2.63
2024-02-17T22:42:34.145Z,5.50
2024-02-17T22:45:01.707Z,3.50
2024-02-17T22:47:28.537Z,5.78
2024-02-17T22:49:56.494Z,2.58
2024-02-17T22:52:23.794Z,4.50
2024-02-17T22:54:51.135Z,3.50
2024-02-17T22:57:18.034Z,3.70
2024-02-17T22:59:45.122Z,4.65
2024-02-17T23:02:13.270Z,4.70
2024-02-17T23:04:41.251Z,3.70
2024-02-17T23:07:08.186Z,3.67
2024-02-17T23:09:34.990Z,3.63
2024-02-17T23:12:02.542Z,4.28
2024-02-17T23:14:29.689Z,4.93
2024-02-17T23:16:56.406Z,4.43
2024-02-17T23:19:23.828Z,4.00
2024-02-17T23:21:50.555Z,3.08
2024-02-17T23:24:17.222Z,4.85
2024-02-17T23:26:44.229Z,5.13
2024-02-17T23:29:13.258Z,2.72
2024-02-17T23:31:40.111Z,3.60
2024-02-17T23:34:06.909Z,3.20
2024-02-17T23:36:33.778Z,3.65
2024-02-17T23:39:00.565Z,4.85
2024-02-17T23:41:27.716Z,3.40
2024-02-17T23:43:54.664Z,3.60
2024-02-17T23:46:21.309Z,3.47
2024-02-17T23:48:49.051Z,4.45
2024-02-17T23:51:17.042Z,4.03
2024-02-17T23:53:45.025Z,4.75
2024-02-17T23:56:12.632Z,5.50
2024-02-17T23:58:39.316Z,2.17
